createdAt,value
2022-10-07T00:00:00.818Z,8.35
2022-10-07T00:01:03.170Z,7.82
2022-10-07T00:02:05.902Z,6.83
2022-10-07T00:03:08.201Z,8.02
2022-10-07T00:05:26.124Z,9.38
2022-10-07T00:06:28.666Z,10.93
2022-10-07T00:07:30.985Z,10.02
2022-10-07T00:08:33.890Z,9.94
2022-10-07T00:09:36.114Z,11.78
2022-10-07T00:10:38.368Z,12.28
2022-10-07T00:11:40.601Z,12.44
2022-10-07T00:12:42.992Z,17.76
2022-10-07T00:13:45.344Z,14.77
2022-10-07T00:14:47.537Z,10.98
2022-10-07T00:15:50.028Z,11.62
2022-10-07T00:16:52.630Z,10.58
2022-10-07T00:17:55.148Z,14.78
2022-10-07T00:18:57.489Z,13.83
2022-10-07T00:19:59.960Z,10.38
2022-10-07T00:21:02.211Z,9.50
2022-10-07T00:22:04.712Z,8.75
2022-10-07T00:23:07.217Z,9.85
2022-10-07T00:24:09.370Z,13.52
2022-10-07T00:25:11.661Z,13.32
2022-10-07T00:26:14.003Z,14.08
2022-10-07T00:27:16.308Z,9.46
2022-10-07T00:28:18.962Z,12.39
2022-10-07T00:29:21.203Z,10.57
2022-10-07T00:30:23.418Z,11.95
2022-10-07T00:31:25.706Z,11.42
2022-10-07T00:32:27.954Z,13.17
2022-10-07T00:33:30.349Z,11.20
2022-10-07T00:34:32.616Z,13.11
2022-10-07T00:35:34.889Z,12.44
2022-10-07T00:36:37.177Z,16.84
2022-10-07T00:37:39.514Z,16.07
2022-10-07T00:38:42.112Z,11.63
2022-10-07T00:39:44.469Z,12.89
2022-10-07T00:40:46.732Z,12.53
2022-10-07T00:41:49.014Z,13.81
2022-10-07T00:42:51.411Z,11.81
2022-10-07T00:43:53.902Z,12.57
2022-10-07T00:44:56.212Z,16.08
2022-10-07T00:45:58.548Z,14.90
2022-10-07T00:47:00.882Z,16.67
2022-10-07T00:48:03.107Z,13.87
2022-10-07T00:49:05.565Z,13.13
2022-10-07T00:50:07.939Z,13.97
2022-10-07T00:51:10.163Z,12.67
2022-10-07T00:52:12.681Z,11.19
2022-10-07T00:53:15.140Z,14.82
2022-10-07T00:54:17.480Z,14.40
2022-10-07T00:55:19.688Z,14.13
2022-10-07T00:56:22.185Z,13.68
2022-10-07T00:57:24.416Z,11.78
2022-10-07T00:58:26.682Z,13.44
2022-10-07T00:59:31.779Z,14.39
2022-10-07T01:00:34.135Z,13.09
2022-10-07T01:01:36.400Z,13.99
2022-10-07T01:02:38.941Z,12.30
2022-10-07T01:03:41.330Z,11.85
2022-10-07T01:04:43.984Z,12.45
2022-10-07T01:05:46.432Z,12.30
2022-10-07T01:06:49.392Z,14.23
2022-10-07T01:07:53.277Z,12.85
2022-10-07T01:08:55.524Z,12.04
2022-10-07T01:09:59.778Z,10.45
2022-10-07T01:11:02.324Z,11.46
2022-10-07T01:12:04.561Z,11.44
2022-10-07T01:13:06.841Z,11.85
2022-10-07T01:14:09.151Z,12.54
2022-10-07T01:15:28.362Z,16.53
2022-10-07T01:16:30.724Z,12.95
2022-10-07T01:17:42.279Z,9.62
2022-10-07T01:18:53.741Z,10.02
2022-10-07T01:19:56.027Z,9.14
2022-10-07T01:21:00.314Z,8.64
2022-10-07T01:22:02.578Z,9.90
2022-10-07T01:23:05.041Z,15.05
2022-10-07T01:24:07.302Z,11.38
2022-10-07T01:25:09.579Z,10.67
2022-10-07T01:26:11.962Z,9.36
2022-10-07T01:27:14.212Z,10.57
2022-10-07T01:28:16.832Z,11.63
2022-10-07T01:29:19.427Z,10.42
2022-10-07T01:30:22.301Z,11.15
2022-10-07T01:31:24.746Z,12.92
2022-10-07T01:32:27.224Z,10.55
2022-10-07T01:34:50.300Z,14.52
2022-10-07T01:35:52.736Z,14.84
2022-10-07T01:36:56.274Z,17.14
2022-10-07T01:38:08.745Z,18.11
2022-10-07T01:39:10.960Z,23.91
2022-10-07T01:40:15.710Z,22.98
2022-10-07T01:41:18.224Z,23.06
2022-10-07T01:42:20.867Z,26.23
2022-10-07T01:43:23.106Z,21.58
2022-10-07T01:44:25.752Z,20.19
2022-10-07T01:45:28.031Z,18.23
2022-10-07T01:46:30.945Z,17.46
2022-10-07T01:47:33.336Z,23.55
2022-10-07T01:48:35.721Z,20.86
2022-10-07T01:49:38.439Z,18.33
2022-10-07T01:52:02.487Z,16.42
2022-10-07T01:53:05.124Z,18.62
2022-10-07T01:55:32.477Z,19.41
2022-10-07T01:56:34.820Z,14.25
2022-10-07T01:57:37.098Z,15.48
2022-10-07T01:58:39.750Z,13.22
2022-10-07T01:59:42.213Z,17.80
2022-10-07T02:00:44.431Z,16.53
2022-10-07T02:01:46.743Z,17.95
2022-10-07T02:02:49.020Z,18.98
2022-10-07T02:04:00.893Z,18.02
2022-10-07T02:05:04.449Z,16.56
2022-10-07T02:06:09.422Z,15.84
2022-10-07T02:07:11.910Z,14.98
2022-10-07T02:08:14.272Z,15.80
2022-10-07T02:13:27.670Z,17.13
2022-10-07T02:14:39.612Z,16.76
2022-10-07T02:15:52.953Z,14.56
2022-10-07T02:17:00.021Z,15.84
2022-10-07T02:18:02.288Z,13.55
2022-10-07T02:19:04.880Z,12.87
2022-10-07T02:20:07.407Z,14.64
2022-10-07T02:21:09.813Z,11.50
2022-10-07T02:22:12.219Z,10.71
2022-10-07T02:23:14.504Z,12.38
2022-10-07T02:24:16.723Z,11.76
2022-10-07T02:25:19.342Z,12.15
2022-10-07T02:26:21.810Z,12.22
2022-10-07T02:27:24.989Z,12.65
2022-10-07T02:28:27.593Z,11.77
2022-10-07T02:29:29.914Z,12.72
2022-10-07T02:30:32.507Z,12.43
2022-10-07T02:31:34.862Z,12.67
2022-10-07T02:32:37.316Z,12.05
2022-10-07T02:33:44.103Z,12.57
2022-10-07T02:34:46.441Z,13.28
2022-10-07T02:35:48.979Z,9.78
2022-10-07T02:36:51.411Z,12.37
2022-10-07T02:37:54.146Z,17.07
2022-10-07T02:38:56.685Z,12.46
2022-10-07T02:39:59.149Z,10.19
2022-10-07T02:41:03.244Z,15.33
2022-10-07T02:42:05.691Z,12.99
2022-10-07T02:43:08.355Z,13.65
2022-10-07T02:44:10.860Z,15.25
2022-10-07T02:46:35.108Z,14.44
2022-10-07T02:47:38.669Z,15.77
2022-10-07T02:48:41.015Z,14.32
2022-10-07T02:49:51.891Z,14.96
2022-10-07T02:50:54.103Z,14.07
2022-10-07T02:53:25.213Z,15.65
2022-10-07T02:54:27.616Z,17.58
2022-10-07T02:55:29.827Z,12.68
2022-10-07T02:56:32.196Z,12.88
2022-10-07T02:57:34.670Z,12.81
2022-10-07T02:58:37.019Z,12.54
2022-10-07T02:59:39.273Z,11.01
2022-10-07T03:00:42.818Z,18.48
2022-10-07T03:01:50.017Z,12.48
2022-10-07T03:02:55.257Z,14.64
2022-10-07T03:03:57.945Z,14.58
2022-10-07T03:05:00.209Z,12.95
2022-10-07T03:06:02.473Z,10.78
2022-10-07T03:07:04.788Z,14.55
2022-10-07T03:08:07.119Z,17.28
2022-10-07T03:09:09.589Z,12.42
2022-10-07T03:11:40.201Z,15.82
2022-10-07T03:12:42.578Z,13.18
2022-10-07T03:15:06.269Z,15.25
2022-10-07T03:16:08.774Z,15.35
2022-10-07T03:17:11.301Z,13.51
2022-10-07T03:18:14.068Z,11.45
2022-10-07T03:19:17.100Z,13.13
2022-10-07T03:21:41.332Z,13.67
2022-10-07T03:22:43.736Z,12.88
2022-10-07T03:23:46.303Z,14.30
2022-10-07T03:24:49.254Z,12.77
2022-10-07T03:27:12.022Z,13.49
2022-10-07T03:28:14.345Z,16.13
2022-10-07T03:29:17.373Z,15.60
2022-10-07T03:30:24.163Z,13.62
2022-10-07T03:31:23.906Z,16.25
2022-10-07T03:33:46.700Z,14.50
2022-10-07T03:34:49.185Z,11.74
2022-10-07T03:38:32.814Z,16.02
2022-10-07T03:39:35.049Z,14.10
2022-10-07T03:40:37.636Z,16.92
2022-10-07T03:41:39.983Z,11.31
2022-10-07T03:44:02.891Z,12.55
2022-10-07T03:47:51.192Z,15.37
2022-10-07T08:37:19.108Z,7.27
2022-10-07T08:38:22.167Z,7.96
2022-10-07T08:39:25.978Z,11.12
2022-10-07T08:40:28.958Z,10.48
2022-10-07T08:41:32.341Z,7.15
2022-10-07T08:42:36.022Z,7.60
2022-10-07T08:43:39.217Z,7.14
2022-10-07T08:44:42.291Z,7.47
2022-10-07T08:45:45.581Z,7.55
2022-10-07T08:46:48.669Z,9.42
2022-10-07T08:47:52.043Z,6.62
2022-10-07T08:48:55.537Z,7.21
2022-10-07T08:49:58.813Z,5.36
2022-10-07T08:51:02.204Z,6.08
2022-10-07T08:52:05.699Z,6.25
2022-10-07T08:53:08.976Z,6.44
2022-10-07T08:54:12.267Z,6.26
2022-10-07T08:55:15.748Z,5.68
2022-10-07T08:56:19.129Z,6.03
2022-10-07T08:57:22.223Z,9.85
2022-10-07T08:58:25.594Z,6.70
2022-10-07T08:59:28.783Z,7.51
2022-10-07T09:00:32.070Z,8.11
2022-10-07T09:01:35.270Z,5.94
2022-10-07T09:02:38.249Z,6.82
2022-10-07T09:03:41.407Z,5.77
2022-10-07T09:04:44.577Z,6.12
2022-10-07T09:05:47.663Z,5.78
2022-10-07T09:06:50.747Z,6.97
2022-10-07T09:07:54.350Z,6.65
2022-10-07T09:08:57.427Z,6.51
2022-10-07T09:10:00.827Z,7.02
2022-10-07T09:11:07.871Z,6.35
2022-10-07T09:12:08.805Z,5.44
2022-10-07T09:13:11.879Z,6.09
2022-10-07T09:14:15.063Z,4.85
2022-10-07T09:15:18.176Z,6.32
2022-10-07T09:16:21.334Z,7.79
2022-10-07T09:17:24.208Z,7.31
2022-10-07T09:18:27.382Z,6.16
2022-10-07T09:19:30.272Z,6.00
2022-10-07T09:20:33.244Z,6.30
2022-10-07T09:21:36.009Z,7.18
2022-10-07T09:22:39.115Z,6.12
2022-10-07T09:23:42.267Z,6.41
2022-10-07T09:24:45.561Z,5.43
2022-10-07T09:25:48.730Z,7.44
2022-10-07T09:26:51.611Z,6.12
2022-10-07T09:27:54.706Z,5.94
2022-10-07T09:28:57.989Z,5.04
2022-10-07T09:30:01.153Z,6.03
2022-10-07T09:31:04.395Z,5.82
2022-10-07T09:32:07.410Z,5.00
2022-10-07T09:33:10.807Z,6.02
2022-10-07T09:34:14.910Z,6.54
2022-10-07T09:35:18.514Z,4.36
2022-10-07T09:36:23.214Z,6.18
2022-10-07T09:37:26.299Z,5.09
2022-10-07T09:38:29.681Z,4.27
2022-10-07T09:39:32.664Z,6.23
2022-10-07T09:40:35.945Z,5.54
2022-10-07T09:41:39.127Z,6.42
2022-10-07T09:42:41.999Z,6.08
2022-10-07T09:43:44.981Z,5.62
2022-10-07T09:44:48.372Z,5.66
2022-10-07T09:45:51.768Z,7.07
2022-10-07T09:46:55.225Z,6.07
2022-10-07T09:47:58.229Z,6.18
2022-10-07T09:49:01.911Z,4.89
2022-10-07T09:50:05.237Z,5.15
2022-10-07T09:51:08.474Z,4.54
2022-10-07T09:52:11.867Z,4.72
2022-10-07T09:53:15.262Z,4.85
2022-10-07T09:54:18.244Z,5.75
2022-10-07T09:55:21.714Z,8.21
2022-10-07T09:56:26.071Z,6.49
2022-10-07T09:57:29.625Z,5.59
2022-10-07T09:58:32.899Z,5.18
2022-10-07T09:59:35.827Z,5.75
2022-10-07T10:00:38.952Z,6.72
2022-10-07T10:01:42.037Z,6.75
2022-10-07T10:02:44.957Z,5.87
2022-10-07T10:03:48.016Z,7.93
2022-10-07T10:04:50.988Z,8.17
2022-10-07T10:05:54.160Z,7.60
2022-10-07T10:06:57.854Z,6.01
2022-10-07T10:08:01.339Z,6.24
2022-10-07T10:09:05.048Z,5.55
2022-10-07T10:10:08.189Z,6.39
2022-10-07T10:11:11.404Z,6.14
2022-10-07T10:12:14.574Z,5.74
2022-10-07T10:13:18.087Z,6.32
2022-10-07T10:14:21.249Z,6.72
2022-10-07T10:15:24.321Z,6.60
2022-10-07T10:16:27.348Z,8.38
2022-10-07T10:17:30.380Z,6.98
2022-10-07T10:18:34.064Z,6.90
2022-10-07T10:19:37.562Z,6.51
2022-10-07T10:20:40.990Z,5.48
2022-10-07T10:21:44.131Z,6.90
2022-10-07T10:22:47.784Z,8.39
2022-10-07T10:23:51.019Z,5.83
2022-10-07T10:24:54.427Z,6.84
2022-10-07T10:25:57.827Z,7.95
2022-10-07T10:27:01.375Z,6.45
2022-10-07T10:28:04.203Z,5.84
2022-10-07T10:29:07.120Z,5.88
2022-10-07T10:30:10.400Z,8.05
2022-10-07T10:31:13.745Z,6.82
2022-10-07T10:32:16.658Z,8.07
2022-10-07T10:33:19.843Z,6.15
2022-10-07T10:34:23.022Z,7.12
2022-10-07T10:35:25.807Z,6.39
2022-10-07T10:36:28.786Z,7.79
2022-10-07T10:37:32.983Z,6.79
2022-10-07T10:38:36.261Z,6.53
2022-10-07T10:39:39.250Z,7.16
2022-10-07T10:40:42.329Z,6.27
2022-10-07T10:41:45.408Z,5.92
2022-10-07T10:42:48.628Z,7.48
2022-10-07T10:43:51.770Z,7.36
2022-10-07T10:44:54.745Z,7.48
2022-10-07T10:45:58.029Z,5.99
2022-10-07T10:47:01.405Z,7.04
2022-10-07T10:48:04.286Z,6.15
2022-10-07T10:49:07.792Z,6.56
2022-10-07T10:50:11.061Z,7.31
2022-10-07T10:51:14.460Z,6.55
2022-10-07T10:52:17.643Z,8.30
2022-10-07T10:53:20.824Z,5.65
2022-10-07T10:54:24.205Z,7.12
2022-10-07T10:55:27.593Z,7.94
2022-10-07T10:56:30.982Z,8.79
2022-10-07T10:57:34.268Z,10.35
2022-10-07T10:58:37.655Z,8.02
2022-10-07T10:59:40.933Z,7.54
2022-10-07T11:00:44.116Z,8.88
2022-10-07T11:01:47.450Z,9.28
2022-10-07T11:02:50.629Z,6.15
2022-10-07T11:03:53.666Z,6.12
2022-10-07T11:04:56.840Z,7.32
2022-10-07T11:06:00.337Z,7.48
2022-10-07T11:07:03.613Z,7.67
2022-10-07T11:08:06.901Z,8.35
2022-10-07T11:09:10.197Z,6.28
2022-10-07T11:10:13.889Z,6.75
2022-10-07T11:11:17.370Z,6.89
2022-10-07T11:12:20.450Z,6.25
2022-10-07T11:13:23.671Z,7.82
2022-10-07T11:14:27.016Z,7.29
2022-10-07T11:15:30.213Z,6.47
2022-10-07T11:16:33.691Z,7.24
2022-10-07T11:17:37.184Z,5.83
2022-10-07T11:18:40.468Z,6.45
2022-10-07T11:19:43.845Z,5.73
2022-10-07T11:20:47.033Z,5.71
2022-10-07T11:21:50.410Z,6.26
2022-10-07T11:22:53.602Z,6.74
2022-10-07T11:23:56.585Z,7.36
2022-10-07T11:24:59.968Z,6.10
2022-10-07T11:26:03.147Z,6.01
2022-10-07T11:27:06.941Z,4.88
2022-10-07T11:28:10.463Z,5.09
2022-10-07T11:29:13.616Z,4.98
2022-10-07T11:30:17.064Z,6.53
2022-10-07T11:31:20.257Z,5.98
2022-10-07T11:32:23.672Z,5.78
2022-10-07T11:33:27.252Z,6.35
2022-10-07T11:34:30.543Z,6.46
2022-10-07T11:35:33.636Z,4.77
2022-10-07T11:36:37.115Z,5.14
2022-10-07T11:37:40.198Z,5.01
2022-10-07T11:38:43.688Z,5.69
2022-10-07T11:39:46.864Z,4.26
2022-10-07T11:40:50.556Z,5.58
2022-10-07T11:41:53.740Z,3.40
2022-10-07T11:42:56.514Z,3.83
2022-10-07T11:43:59.800Z,5.25
2022-10-07T11:45:02.975Z,4.77
2022-10-07T11:46:11.194Z,4.35
2022-10-07T11:47:10.674Z,5.17
2022-10-07T11:48:14.262Z,4.48
2022-10-07T11:49:17.657Z,5.61
2022-10-07T11:50:21.030Z,4.68
2022-10-07T11:51:24.115Z,5.08
2022-10-07T11:52:27.084Z,3.85
2022-10-07T11:53:30.174Z,4.36
2022-10-07T11:54:33.793Z,5.53
2022-10-07T11:55:37.244Z,3.96
2022-10-07T11:56:40.541Z,4.82
2022-10-07T11:57:44.038Z,5.18
2022-10-07T11:58:47.310Z,4.64
2022-10-07T11:59:50.794Z,4.04
2022-10-07T12:00:53.980Z,4.81
2022-10-07T12:01:57.518Z,3.66
2022-10-07T12:03:01.325Z,4.28
2022-10-07T12:04:04.961Z,4.56
2022-10-07T12:05:08.349Z,2.68
2022-10-07T12:06:11.781Z,2.87
2022-10-07T12:07:14.914Z,3.32
2022-10-07T12:08:18.106Z,3.35
2022-10-07T12:09:21.106Z,4.60
2022-10-07T12:10:24.455Z,3.88
2022-10-07T12:11:27.950Z,4.75
2022-10-07T12:12:31.032Z,4.33
2022-10-07T12:13:34.318Z,4.50
2022-10-07T12:14:37.387Z,3.12
2022-10-07T12:15:40.567Z,3.13
2022-10-07T12:16:44.343Z,3.82
2022-10-07T12:17:47.757Z,4.51
2022-10-07T12:18:50.937Z,3.32
2022-10-07T12:19:54.222Z,4.96
2022-10-07T12:20:57.911Z,3.78
2022-10-07T12:22:01.306Z,3.29
2022-10-07T12:23:04.386Z,4.57
2022-10-07T12:24:07.691Z,5.79
2022-10-07T12:25:11.399Z,5.14
2022-10-07T12:26:14.637Z,4.44
2022-10-07T12:27:17.924Z,2.51
2022-10-07T12:28:21.266Z,3.52
2022-10-07T12:29:24.519Z,6.90
2022-10-07T12:30:27.468Z,3.59
2022-10-07T12:31:30.609Z,2.68
2022-10-07T12:32:33.738Z,2.90
2022-10-07T12:33:37.132Z,3.47
2022-10-07T12:34:40.513Z,3.33
2022-10-07T12:35:43.908Z,3.21
2022-10-07T12:36:47.177Z,4.20
2022-10-07T12:37:50.690Z,3.15
2022-10-07T12:38:54.567Z,4.35
2022-10-07T12:39:58.160Z,4.69
2022-10-07T12:41:01.958Z,2.66
2022-10-07T12:42:05.237Z,3.57
2022-10-07T12:43:09.235Z,3.33
2022-10-07T12:44:13.035Z,4.54
2022-10-07T12:45:16.525Z,3.36
2022-10-07T12:46:19.810Z,2.58
2022-10-07T12:47:22.993Z,3.38
2022-10-07T12:48:26.782Z,5.20
2022-10-07T12:49:30.088Z,2.21
2022-10-07T12:50:34.177Z,2.48
2022-10-07T12:51:37.302Z,2.89
2022-10-07T12:52:40.336Z,2.65
2022-10-07T12:53:43.100Z,2.71
2022-10-07T12:54:46.287Z,4.89
2022-10-07T12:55:49.485Z,2.73
2022-10-07T12:56:52.657Z,2.21
2022-10-07T12:57:59.109Z,2.14
2022-10-07T12:59:02.604Z,2.74
2022-10-07T13:00:05.774Z,2.16
2022-10-07T13:01:09.152Z,2.73
2022-10-07T13:02:12.567Z,2.71
2022-10-07T13:03:16.145Z,3.14
2022-10-07T13:04:19.326Z,3.16
2022-10-07T13:05:22.812Z,3.56
2022-10-07T13:06:26.199Z,2.16
2022-10-07T13:07:29.694Z,3.06
2022-10-07T13:08:32.665Z,4.22
2022-10-07T13:09:35.742Z,2.72
2022-10-07T13:10:38.822Z,2.59
2022-10-07T13:11:46.907Z,3.82
2022-10-07T13:12:47.579Z,6.03
2022-10-07T13:13:51.854Z,3.39
2022-10-07T13:14:55.141Z,2.43
2022-10-07T13:15:58.324Z,2.62
2022-10-07T13:17:01.812Z,2.72
2022-10-07T13:18:09.931Z,2.31
2022-10-07T13:19:09.918Z,2.83
2022-10-07T13:20:15.046Z,2.72
2022-10-07T13:21:18.736Z,2.42
2022-10-07T13:22:22.018Z,2.41
2022-10-07T13:23:27.414Z,2.92
2022-10-07T13:24:30.124Z,2.93
2022-10-07T13:25:34.131Z,2.32
2022-10-07T13:26:37.817Z,2.06
2022-10-07T13:27:41.307Z,1.92
2022-10-07T13:28:45.266Z,2.08
2022-10-07T13:29:48.389Z,2.37
2022-10-07T13:30:51.574Z,2.45
2022-10-07T13:31:54.967Z,2.02
2022-10-07T13:32:58.342Z,1.96
2022-10-07T13:34:01.450Z,1.96
2022-10-07T13:35:04.905Z,2.25
2022-10-07T13:36:08.506Z,2.34
2022-10-07T13:37:11.890Z,2.12
2022-10-07T13:38:15.170Z,1.66
2022-10-07T13:39:18.252Z,1.85
2022-10-07T13:40:21.842Z,1.92
2022-10-07T13:41:25.028Z,2.32
2022-10-07T13:42:28.309Z,2.92
2022-10-07T13:43:31.603Z,2.48
2022-10-07T13:44:35.697Z,3.44
2022-10-07T13:45:38.709Z,2.33
2022-10-07T13:46:42.068Z,2.44
2022-10-07T13:47:45.457Z,1.83
2022-10-07T13:48:48.632Z,1.77
2022-10-07T13:49:52.122Z,2.47
2022-10-07T13:50:55.394Z,3.08
2022-10-07T13:51:58.597Z,2.02
2022-10-07T13:53:01.868Z,1.75
2022-10-07T13:54:05.057Z,1.76
2022-10-07T13:55:08.433Z,1.93
2022-10-07T13:56:11.463Z,2.45
2022-10-07T13:57:17.909Z,2.49
2022-10-07T13:58:19.523Z,2.79
2022-10-07T13:59:22.902Z,2.46
2022-10-07T14:00:25.884Z,1.64
2022-10-07T14:01:29.212Z,1.89
2022-10-07T14:02:36.408Z,2.64
2022-10-07T14:03:37.083Z,2.34
2022-10-07T14:04:40.147Z,2.56
2022-10-07T14:05:43.224Z,3.25
2022-10-07T14:06:46.419Z,2.22
2022-10-07T14:07:49.486Z,2.31
2022-10-07T14:08:52.673Z,2.63
2022-10-07T14:09:55.850Z,2.46
2022-10-07T14:10:59.037Z,2.55
2022-10-07T14:12:02.306Z,2.86
2022-10-07T14:13:05.505Z,2.84
2022-10-07T14:14:08.479Z,3.12
2022-10-07T14:15:11.548Z,2.13
2022-10-07T14:16:14.768Z,3.21
2022-10-07T14:17:17.906Z,2.69
2022-10-07T14:18:20.998Z,1.92
2022-10-07T14:19:24.220Z,2.28
2022-10-07T14:20:27.666Z,2.82
2022-10-07T14:21:30.752Z,3.52
2022-10-07T14:22:34.233Z,2.25
2022-10-07T14:23:37.626Z,3.45
2022-10-07T14:24:41.011Z,2.27
2022-10-07T14:25:46.900Z,2.71
2022-10-07T14:26:49.215Z,1.91
2022-10-07T14:27:52.598Z,2.38
2022-10-07T14:28:55.888Z,1.94
2022-10-07T14:29:59.238Z,1.92
2022-10-07T14:31:02.625Z,1.92
2022-10-07T14:32:05.740Z,2.13
2022-10-07T14:33:09.124Z,2.25
2022-10-07T14:34:12.400Z,2.62
2022-10-07T14:35:15.482Z,2.92
2022-10-07T14:36:18.469Z,1.92
2022-10-07T14:37:21.641Z,3.12
2022-10-07T14:38:25.147Z,1.94
2022-10-07T14:39:28.213Z,2.85
2022-10-07T14:40:31.297Z,4.04
2022-10-07T14:41:34.273Z,1.88
2022-10-07T14:42:37.353Z,3.39
2022-10-07T14:43:40.125Z,2.44
2022-10-07T14:44:43.236Z,2.98
2022-10-07T14:45:46.356Z,3.02
2022-10-07T14:46:49.463Z,2.43
2022-10-07T14:47:52.946Z,2.72
2022-10-07T14:48:56.137Z,3.52
2022-10-07T14:49:59.275Z,2.75
2022-10-07T14:51:02.604Z,4.11
2022-10-07T14:52:05.885Z,3.95
2022-10-07T14:53:09.064Z,4.44
2022-10-07T14:54:12.452Z,2.99
2022-10-07T14:55:15.426Z,3.39
2022-10-07T14:56:18.715Z,3.26
2022-10-07T14:57:21.894Z,4.42
2022-10-07T14:58:24.880Z,2.95
2022-10-07T14:59:28.052Z,2.62
2022-10-07T15:00:33.747Z,4.31
2022-10-07T15:01:35.442Z,4.26
2022-10-07T15:02:38.880Z,3.02
2022-10-07T15:03:41.744Z,3.24
2022-10-07T15:04:45.091Z,2.13
2022-10-07T15:05:48.373Z,2.63
2022-10-07T15:06:51.272Z,3.80
2022-10-07T15:07:54.233Z,3.18
2022-10-07T15:08:57.103Z,3.31
2022-10-07T15:10:00.174Z,2.48
2022-10-07T15:11:03.454Z,2.64
2022-10-07T15:12:06.953Z,2.53
2022-10-07T15:13:13.237Z,3.65
2022-10-07T15:14:14.746Z,2.49
2022-10-07T15:15:17.826Z,3.23
2022-10-07T15:16:21.098Z,2.50
2022-10-07T15:17:23.992Z,2.98
2022-10-07T15:18:27.066Z,3.57
2022-10-07T15:19:30.047Z,2.45
2022-10-07T15:20:33.134Z,2.52
2022-10-07T15:21:36.105Z,3.70
2022-10-07T15:22:38.877Z,2.65
2022-10-07T15:23:41.947Z,2.92
2022-10-07T15:24:45.338Z,3.88
2022-10-07T15:25:48.630Z,4.65
2022-10-07T15:26:51.606Z,3.66
2022-10-07T15:27:54.886Z,2.92
2022-10-07T15:28:57.958Z,2.78
2022-10-07T15:30:00.740Z,2.43
2022-10-07T15:31:03.853Z,2.78
2022-10-07T15:32:07.003Z,3.16
2022-10-07T15:33:10.287Z,2.65
2022-10-07T15:34:13.263Z,2.17
2022-10-07T15:35:16.235Z,2.30
2022-10-07T15:36:19.629Z,2.79
2022-10-07T15:37:22.698Z,2.08
2022-10-07T15:38:25.474Z,2.92
2022-10-07T15:39:28.459Z,3.99
2022-10-07T15:40:31.526Z,2.85
2022-10-07T15:41:34.515Z,3.04
2022-10-07T15:42:37.486Z,3.54
2022-10-07T15:43:40.777Z,2.79
2022-10-07T15:44:43.948Z,3.99
2022-10-07T15:45:47.197Z,2.90
2022-10-07T15:46:50.421Z,3.69
2022-10-07T15:47:58.122Z,2.18
2022-10-07T15:48:57.803Z,3.59
2022-10-07T15:50:00.997Z,2.85
2022-10-07T15:51:04.163Z,5.54
2022-10-07T15:52:07.350Z,2.85
2022-10-07T15:53:10.637Z,3.82
2022-10-07T15:54:13.819Z,3.16
2022-10-07T15:55:16.892Z,2.70
2022-10-07T15:56:20.175Z,3.74
2022-10-07T15:57:22.956Z,2.55
2022-10-07T15:58:26.032Z,3.80
2022-10-07T15:59:29.107Z,3.92
2022-10-07T16:00:32.088Z,2.72
2022-10-07T16:01:35.098Z,3.83
2022-10-07T16:02:38.366Z,3.68
2022-10-07T16:03:41.529Z,4.19
2022-10-07T16:04:44.816Z,3.94
2022-10-07T16:05:48.203Z,5.15
2022-10-07T16:06:51.180Z,3.97
2022-10-07T16:07:53.946Z,2.50
2022-10-07T16:08:57.333Z,3.02
2022-10-07T16:10:00.311Z,4.96
2022-10-07T16:11:03.699Z,3.12
2022-10-07T16:12:06.990Z,3.12
2022-10-07T16:13:10.061Z,3.47
2022-10-07T16:14:13.247Z,3.18
2022-10-07T16:15:16.014Z,4.22
2022-10-07T16:16:19.157Z,3.23
2022-10-07T16:17:22.175Z,2.19
2022-10-07T16:18:25.256Z,2.67
2022-10-07T16:19:28.338Z,2.76
2022-10-07T16:20:31.416Z,3.67
2022-10-07T16:21:34.704Z,3.98
2022-10-07T16:22:37.573Z,3.35
2022-10-07T16:23:40.357Z,2.48
2022-10-07T16:24:43.635Z,4.25
2022-10-07T16:25:46.714Z,3.57
2022-10-07T16:26:49.788Z,2.45
2022-10-07T16:27:52.976Z,3.12
2022-10-07T16:28:56.259Z,2.28
2022-10-07T16:29:59.137Z,2.53
2022-10-07T16:31:02.035Z,2.75
2022-10-07T16:32:05.124Z,3.76
2022-10-07T16:33:08.075Z,2.47
2022-10-07T16:34:11.549Z,3.18
2022-10-07T16:35:14.421Z,2.56
2022-10-07T16:36:17.701Z,2.27
2022-10-07T16:37:20.899Z,2.31
2022-10-07T16:38:23.554Z,2.35
2022-10-07T16:39:26.642Z,3.15
2022-10-07T16:40:29.510Z,3.29
2022-10-07T16:41:32.903Z,2.52
2022-10-07T16:42:35.986Z,2.93
2022-10-07T16:43:38.964Z,2.22
2022-10-07T16:44:42.143Z,2.20
2022-10-07T16:45:44.846Z,2.39
2022-10-07T16:46:47.763Z,2.55
2022-10-07T16:47:50.976Z,2.21
2022-10-07T16:48:53.737Z,3.35
2022-10-07T16:49:57.024Z,3.14
2022-10-07T16:51:00.004Z,2.15
2022-10-07T16:52:03.287Z,3.11
2022-10-07T16:53:06.152Z,2.36
2022-10-07T16:54:09.245Z,1.88
2022-10-07T16:55:12.616Z,2.33
2022-10-07T16:56:15.708Z,3.04
2022-10-07T16:57:18.781Z,2.47
2022-10-07T16:58:22.380Z,1.88
2022-10-07T16:59:25.566Z,2.22
2022-10-07T17:00:28.647Z,2.53
2022-10-07T17:01:31.833Z,3.85
2022-10-07T17:02:35.106Z,2.08
2022-10-07T17:03:38.378Z,2.08
2022-10-07T17:04:41.466Z,2.88
2022-10-07T17:05:44.759Z,4.47
2022-10-07T17:06:47.625Z,3.13
2022-10-07T17:07:50.862Z,2.54
2022-10-07T17:08:53.787Z,3.72
2022-10-07T17:09:56.966Z,3.12
2022-10-07T17:11:00.063Z,2.34
2022-10-07T17:12:03.018Z,1.98
2022-10-07T17:13:06.620Z,2.74
2022-10-07T17:14:10.312Z,2.21
2022-10-07T17:15:13.084Z,2.68
2022-10-07T17:16:16.322Z,2.67
2022-10-07T17:17:19.757Z,3.51
2022-10-07T17:18:22.932Z,1.86
2022-10-07T17:19:26.010Z,2.94
2022-10-07T17:20:28.988Z,3.02
2022-10-07T17:21:32.476Z,2.52
2022-10-07T17:22:35.352Z,3.89
2022-10-07T17:23:38.748Z,3.66
2022-10-07T17:24:41.619Z,3.72
2022-10-07T17:25:44.694Z,1.99
2022-10-07T17:26:47.676Z,2.49
2022-10-07T17:27:50.541Z,3.51
2022-10-07T17:28:53.624Z,2.76
2022-10-07T17:29:56.912Z,1.94
2022-10-07T17:30:59.998Z,2.51
2022-10-07T17:32:03.066Z,2.64
2022-10-07T17:33:06.044Z,3.78
2022-10-07T17:34:09.170Z,1.98
2022-10-07T17:35:12.611Z,3.16
2022-10-07T17:36:16.100Z,2.52
2022-10-07T17:37:19.495Z,2.56
2022-10-07T17:38:22.662Z,2.64
2022-10-07T17:39:25.642Z,2.19
2022-10-07T17:40:28.723Z,2.48
2022-10-07T17:41:31.510Z,2.72
2022-10-07T17:42:34.576Z,2.27
2022-10-07T17:43:37.649Z,2.65
2022-10-07T17:44:40.532Z,2.22
2022-10-07T17:45:43.502Z,3.37
2022-10-07T17:46:46.902Z,2.35
2022-10-07T17:47:49.773Z,1.95
2022-10-07T17:48:52.851Z,2.02
2022-10-07T17:49:55.732Z,1.99
2022-10-07T17:50:58.901Z,2.55
2022-10-07T17:52:02.194Z,2.84
2022-10-07T17:53:05.883Z,2.16
2022-10-07T17:54:08.681Z,1.88
2022-10-07T17:55:12.251Z,2.02
2022-10-07T17:56:15.528Z,3.30
2022-10-07T17:57:18.714Z,3.09
2022-10-07T17:58:22.201Z,2.51
2022-10-07T17:59:25.188Z,2.62
2022-10-07T18:00:28.145Z,1.92
2022-10-07T18:01:31.543Z,2.33
2022-10-07T18:02:34.621Z,2.40
2022-10-07T18:03:37.907Z,3.01
2022-10-07T18:04:40.797Z,2.32
2022-10-07T18:05:44.068Z,3.20
2022-10-07T18:06:47.761Z,2.38
2022-10-07T18:07:51.145Z,2.29
2022-10-07T18:08:54.943Z,2.42
2022-10-07T18:09:58.640Z,1.85
2022-10-07T18:11:02.023Z,2.52
2022-10-07T18:12:05.413Z,3.64
2022-10-07T18:13:08.800Z,2.04
2022-10-07T18:14:12.179Z,1.68
2022-10-07T18:15:15.168Z,3.62
2022-10-07T18:16:18.401Z,2.02
2022-10-07T18:17:22.654Z,3.26
2022-10-07T18:18:26.041Z,3.39
2022-10-07T18:19:29.111Z,1.90
2022-10-07T18:20:32.503Z,3.46
2022-10-07T18:21:35.678Z,3.91
2022-10-07T18:22:39.389Z,2.54
2022-10-07T18:23:42.560Z,2.44
2022-10-07T18:24:46.172Z,3.63
2022-10-07T18:25:49.539Z,3.15
2022-10-07T18:26:52.622Z,2.40
2022-10-07T18:27:56.107Z,2.31
2022-10-07T18:28:59.303Z,2.47
2022-10-07T18:30:02.678Z,3.28
2022-10-07T18:31:11.470Z,1.98
2022-10-07T18:32:10.849Z,2.07
2022-10-07T18:33:14.887Z,2.88
2022-10-07T18:34:18.073Z,3.13
2022-10-07T18:35:21.657Z,2.28
2022-10-07T18:36:25.361Z,2.67
2022-10-07T18:37:28.344Z,2.50
2022-10-07T18:38:31.714Z,4.15
2022-10-07T18:39:35.005Z,7.55
2022-10-07T18:40:38.387Z,2.56
2022-10-07T18:41:41.564Z,2.93
2022-10-07T18:42:44.858Z,2.21
2022-10-07T18:43:47.934Z,1.96
2022-10-07T18:44:50.912Z,1.87
2022-10-07T18:45:54.007Z,3.01
2022-10-07T18:46:57.372Z,2.29
2022-10-07T18:48:01.075Z,2.53
2022-10-07T18:49:04.551Z,2.42
2022-10-07T18:50:08.447Z,3.04
2022-10-07T18:51:11.236Z,4.23
2022-10-07T18:52:14.004Z,2.26
2022-10-07T18:53:16.879Z,2.97
2022-10-07T18:54:20.052Z,2.54
2022-10-07T18:55:23.138Z,3.20
2022-10-07T18:56:26.521Z,2.44
2022-10-07T18:57:29.603Z,3.14
2022-10-07T18:58:32.679Z,3.48
2022-10-07T18:59:35.966Z,3.65
2022-10-07T19:00:39.144Z,2.51
2022-10-07T19:01:44.379Z,2.44
2022-10-07T19:02:46.946Z,2.09
2022-10-07T19:03:49.825Z,2.06
2022-10-07T19:04:52.792Z,3.28
2022-10-07T19:05:56.082Z,2.64
2022-10-07T19:06:59.265Z,2.65
2022-10-07T19:08:02.551Z,2.96
2022-10-07T19:09:05.623Z,2.04